Metar z połowy godziny Komunikat METAR ze strony awiacja.imgw.pl Metar Mil EPDE METAR EPDE 271400Z 23006KT 9999 OVC020 02/M01 Q0997 RMK 022 080 8/8=